sensor_id;sensor_type;location;lat;lon;timestamp;pressure;altitude;pressure_sealevel;temperature;humidity
32761;BME280;19126;47.472;7.850;2022-08-03T00:01:45;96677.63;;;16.43;100.00
32761;BME280;19126;47.472;7.850;2022-08-03T00:04:12;96675.19;;;16.41;100.00
32761;BME280;19126;47.472;7.850;2022-08-03T00:06:41;96678.88;;;16.40;100.00
32761;BME280;19126;47.472;7.850;2022-08-03T00:09:09;96679.06;;;16.38;100.00
32761;BME280;19126;47.472;7.850;2022-08-03T00:11:37;96681.53;;;16.40;100.00
32761;BME280;19126;47.472;7.850;2022-08-03T00:14:06;96681.53;;;16.40;100.00
32761;BME280;19126;47.472;7.850;2022-08-03T00:16:33;96680.69;;;16.39;100.00
32761;BME280;19126;47.472;7.850;2022-08-03T00:19:01;96678.28;;;16.38;100.00
32761;BME280;19126;47.472;7.850;2022-08-03T00:21:29;96674.84;;;16.31;100.00
32761;BME280;19126;47.472;7.850;2022-08-03T00:23:58;96672.97;;;16.31;100.00
32761;BME280;19126;47.472;7.850;2022-08-03T00:26:25;96663.63;;;16.29;100.00
32761;BME280;19126;47.472;7.850;2022-08-03T00:28:52;96675.66;;;16.24;100.00
32761;BME280;19126;47.472;7.850;2022-08-03T00:31:19;96670.38;;;16.18;100.00
32761;BME280;19126;47.472;7.850;2022-08-03T00:33:47;96680.38;;;16.16;100.00
32761;BME280;19126;47.472;7.850;2022-08-03T00:36:14;96668.97;;;16.08;100.00
32761;BME280;19126;47.472;7.850;2022-08-03T00:38:41;96669.63;;;16.04;100.00
32761;BME280;19126;47.472;7.850;2022-08-03T00:41:09;96670.63;;;16.03;100.00
32761;BME280;19126;47.472;7.850;2022-08-03T00:43:36;96668.41;;;16.00;100.00
32761;BME280;19126;47.472;7.850;2022-08-03T00:46:04;96676.75;;;15.96;100.00
32761;BME280;19126;47.472;7.850;2022-08-03T00:48:31;96666.16;;;15.96;100.00
32761;BME280;19126;47.472;7.850;2022-08-03T00:50:58;96669.63;;;15.97;100.00
32761;BME280;19126;47.472;7.850;2022-08-03T00:53:27;96666.16;;;15.96;100.00
32761;BME280;19126;47.472;7.850;2022-08-03T00:55:54;96667.19;;;15.95;100.00
32761;BME280;19126;47.472;7.850;2022-08-03T00:58:23;96670.03;;;15.94;100.00
32761;BME280;19126;47.472;7.850;2022-08-03T01:00:50;96661.47;;;15.92;100.00
32761;BME280;19126;47.472;7.850;2022-08-03T01:03:17;96666.34;;;15.88;100.00
32761;BME280;19126;47.472;7.850;2022-08-03T01:05:54;96667.97;;;15.82;100.00
32761;BME280;19126;47.472;7.850;2022-08-03T01:08:31;96669.19;;;15.80;100.00
32761;BME280;19126;47.472;7.850;2022-08-03T01:11:09;96674.72;;;15.78;100.00
32761;BME280;19126;47.472;7.850;2022-08-03T01:13:48;96668.19;;;15.74;100.00
32761;BME280;19126;47.472;7.850;2022-08-03T01:16:27;96670.44;;;15.71;100.00
32761;BME280;19126;47.472;7.850;2022-08-03T01:21:55;96667.19;;;15.62;100.00
32761;BME280;19126;47.472;7.850;2022-08-03T01:24:36;96669.22;;;15.60;100.00
32761;BME280;19126;47.472;7.850;2022-08-03T01:27:10;96672.28;;;15.57;100.00
32761;BME280;19126;47.472;7.850;2022-08-03T01:29:56;96672.28;;;15.50;100.00
32761;BME280;19126;47.472;7.850;2022-08-03T01:32:33;96672.69;;;15.47;100.00
32761;BME280;19126;47.472;7.850;2022-08-03T01:35:05;96671.28;;;15.44;100.00
32761;BME280;19126;47.472;7.850;2022-08-03T01:37:40;96665.56;;;15.41;100.00
32761;BME280;19126;47.472;7.850;2022-08-03T01:40:11;96660.25;;;15.41;100.00
32761;BME280;19126;47.472;7.850;2022-08-03T01:42:40;96662.91;;;15.41;100.00
32761;BME280;19126;47.472;7.850;2022-08-03T01:45:13;96663.53;;;15.36;100.00
32761;BME280;19126;47.472;7.850;2022-08-03T01:47:44;96666.19;;;15.36;100.00
32761;BME280;19126;47.472;7.850;2022-08-03T01:50:13;96663.94;;;15.33;100.00
32761;BME280;19126;47.472;7.850;2022-08-03T01:52:43;96657.22;;;15.30;100.00
32761;BME280;19126;47.472;7.850;2022-08-03T01:55:12;96657.22;;;15.30;100.00
32761;BME280;19126;47.472;7.850;2022-08-03T01:57:43;96664.16;;;15.24;100.00
32761;BME280;19126;47.472;7.850;2022-08-03T02:00:14;96659.47;;;15.27;100.00
32761;BME280;19126;47.472;7.850;2022-08-03T02:02:43;96663.31;;;15.24;100.00
32761;BME280;19126;47.472;7.850;2022-08-03T02:05:14;96648.69;;;15.21;100.00
32761;BME280;19126;47.472;7.850;2022-08-03T02:07:43;96652.53;;;15.19;100.00
32761;BME280;19126;47.472;7.850;2022-08-03T02:10:13;96655.38;;;15.17;100.00
32761;BME280;19126;47.472;7.850;2022-08-03T02:12:43;96650.28;;;15.16;100.00
32761;BME280;19126;47.472;7.850;2022-08-03T02:15:15;96651.31;;;15.15;99.51
32761;BME280;19126;47.472;7.850;2022-08-03T02:17:43;96653.16;;;15.14;99.02
32761;BME280;19126;47.472;7.850;2022-08-03T02:20:13;96652.13;;;15.15;99.67
32761;BME280;19126;47.472;7.850;2022-08-03T02:22:42;96657.59;;;15.14;99.00
32761;BME280;19126;47.472;7.850;2022-08-03T02:25:13;96647.44;;;15.11;100.00
32761;BME280;19126;47.472;7.850;2022-08-03T02:27:50;96655.38;;;15.11;100.00
32761;BME280;19126;47.472;7.850;2022-08-03T02:30:19;96653.56;;;15.11;100.00
32761;BME280;19126;47.472;7.850;2022-08-03T02:32:53;96662.28;;;15.12;100.00
32761;BME280;19126;47.472;7.850;2022-08-03T02:35:25;96658.00;;;15.11;100.00
32761;BME280;19126;47.472;7.850;2022-08-03T02:38:00;96656.19;;;15.11;98.29
32761;BME280;19126;47.472;7.850;2022-08-03T02:40:30;96654.56;;;15.10;98.04
32761;BME280;19126;47.472;7.850;2022-08-03T02:43:02;96646.22;;;15.06;97.48
32761;BME280;19126;47.472;7.850;2022-08-03T02:45:35;96638.28;;;15.00;96.12
32761;BME280;19126;47.472;7.850;2022-08-03T02:48:06;96652.53;;;14.99;96.53
32761;BME280;19126;47.472;7.850;2022-08-03T02:50:34;96644.78;;;14.97;97.39
32761;BME280;19126;47.472;7.850;2022-08-03T02:53:02;96651.28;;;14.94;96.98
32761;BME280;19126;47.472;7.850;2022-08-03T02:55:32;96645.78;;;14.89;96.44
32761;BME280;19126;47.472;7.850;2022-08-03T02:58:02;96639.88;;;14.87;96.58
32761;BME280;19126;47.472;7.850;2022-08-03T03:00:32;96638.03;;;14.88;97.52
32761;BME280;19126;47.472;7.850;2022-08-03T03:03:01;96641.91;;;14.85;97.68
32761;BME280;19126;47.472;7.850;2022-08-03T03:05:31;96638.88;;;14.88;95.54
32761;BME280;19126;47.472;7.850;2022-08-03T03:07:58;96637.66;;;14.84;95.29
32761;BME280;19126;47.472;7.850;2022-08-03T03:10:25;96635.81;;;14.78;93.17
32761;BME280;19126;47.472;7.850;2022-08-03T03:12:56;96640.06;;;14.79;94.69
32761;BME280;19126;47.472;7.850;2022-08-03T03:15:25;96635.19;;;14.76;93.95
32761;BME280;19126;47.472;7.850;2022-08-03T03:17:56;96631.50;;;14.70;92.97
32761;BME280;19126;47.472;7.850;2022-08-03T03:20:24;96641.44;;;14.68;92.95
32761;BME280;19126;47.472;7.850;2022-08-03T03:22:54;96641.06;;;14.71;92.08
32761;BME280;19126;47.472;7.850;2022-08-03T03:25:22;96638.19;;;14.66;90.69
32761;BME280;19126;47.472;7.850;2022-08-03T03:27:50;96634.72;;;14.65;89.21
32761;BME280;19126;47.472;7.850;2022-08-03T03:30:17;96634.50;;;14.60;91.39
32761;BME280;19126;47.472;7.850;2022-08-03T03:32:44;96640.59;;;14.61;93.59
32761;BME280;19126;47.472;7.850;2022-08-03T03:35:13;96641.22;;;14.63;92.36
32761;BME280;19126;47.472;7.850;2022-08-03T03:37:41;96642.84;;;14.64;92.33
32761;BME280;19126;47.472;7.850;2022-08-03T03:40:10;96641.44;;;14.61;93.13
32761;BME280;19126;47.472;7.850;2022-08-03T03:42:37;96637.56;;;14.64;92.87
32761;BME280;19126;47.472;7.850;2022-08-03T03:45:06;96643.25;;;14.61;92.38
32761;BME280;19126;47.472;7.850;2022-08-03T03:47:34;96638.97;;;14.60;91.88
32761;BME280;19126;47.472;7.850;2022-08-03T03:50:02;96641.00;;;14.58;90.77
32761;BME280;19126;47.472;7.850;2022-08-03T03:52:32;96653.59;;;14.56;90.81
32761;BME280;19126;47.472;7.850;2022-08-03T03:54:59;96646.25;;;14.51;89.65
32761;BME280;19126;47.472;7.850;2022-08-03T03:57:27;96644.84;;;14.48;89.76
32761;BME280;19126;47.472;7.850;2022-08-03T03:59:54;96650.31;;;14.47;89.62
32761;BME280;19126;47.472;7.850;2022-08-03T04:02:21;96657.44;;;14.46;86.66
32761;BME280;19126;47.472;7.850;2022-08-03T04:04:48;96652.16;;;14.46;85.10
32761;BME280;19126;47.472;7.850;2022-08-03T04:07:40;96650.53;;;14.45;85.81
32761;BME280;19126;47.472;7.850;2022-08-03T04:10:31;96652.16;;;14.46;85.47
32761;BME280;19126;47.472;7.850;2022-08-03T04:13:18;96658.84;;;14.42;85.64
32761;BME280;19126;47.472;7.850;2022-08-03T04:15:48;96649.91;;;14.43;84.67
32761;BME280;19126;47.472;7.850;2022-08-03T04:18:17;96655.81;;;14.45;84.64
32761;BME280;19126;47.472;7.850;2022-08-03T04:20:47;96653.78;;;14.47;85.33
32761;BME280;19126;47.472;7.850;2022-08-03T04:23:21;96658.66;;;14.50;84.96
32761;BME280;19126;47.472;7.850;2022-08-03T04:25:51;96656.81;;;14.51;84.17
32761;BME280;19126;47.472;7.850;2022-08-03T04:28:19;96666.38;;;14.52;84.56
32761;BME280;19126;47.472;7.850;2022-08-03T04:30:48;96657.66;;;14.51;85.67
32761;BME280;19126;47.472;7.850;2022-08-03T04:33:18;96661.72;;;14.54;86.58
32761;BME280;19126;47.472;7.850;2022-08-03T04:35:49;96669.47;;;14.56;85.29
32761;BME280;19126;47.472;7.850;2022-08-03T04:38:19;96663.34;;;14.55;83.67
32761;BME280;19126;47.472;7.850;2022-08-03T04:40:48;96672.09;;;14.56;84.09
32761;BME280;19126;47.472;7.850;2022-08-03T04:43:17;96672.91;;;14.56;85.09
32761;BME280;19126;47.472;7.850;2022-08-03T04:45:47;96664.78;;;14.58;84.27
32761;BME280;19126;47.472;7.850;2022-08-03T04:48:15;96668.88;;;14.60;82.36
32761;BME280;19126;47.472;7.850;2022-08-03T04:50:43;96667.88;;;14.61;82.64
32761;BME280;19126;47.472;7.850;2022-08-03T04:53:11;96671.75;;;14.65;81.88
32761;BME280;19126;47.472;7.850;2022-08-03T04:55:40;96676.44;;;14.70;80.63
32761;BME280;19126;47.472;7.850;2022-08-03T04:58:07;96679.53;;;14.74;78.50
32761;BME280;19126;47.472;7.850;2022-08-03T05:00:34;96673.16;;;14.68;78.64
32761;BME280;19126;47.472;7.850;2022-08-03T05:03:01;96678.09;;;14.71;77.97
32761;BME280;19126;47.472;7.850;2022-08-03T05:05:28;96688.47;;;14.73;78.87
32761;BME280;19126;47.472;7.850;2022-08-03T05:07:55;96667.94;;;14.75;81.72
32761;BME280;19126;47.472;7.850;2022-08-03T05:10:23;96673.44;;;14.80;79.81
32761;BME280;19126;47.472;7.850;2022-08-03T05:12:51;96675.69;;;14.83;79.40
32761;BME280;19126;47.472;7.850;2022-08-03T05:15:18;96670.19;;;14.85;80.54
32761;BME280;19126;47.472;7.850;2022-08-03T05:17:45;96669.16;;;14.86;81.58
32761;BME280;19126;47.472;7.850;2022-08-03T05:20:13;96676.50;;;14.90;84.01
32761;BME280;19126;47.472;7.850;2022-08-03T05:22:40;96674.69;;;14.98;85.15
32761;BME280;19126;47.472;7.850;2022-08-03T05:25:08;96681.84;;;15.04;84.58
32761;BME280;19126;47.472;7.850;2022-08-03T05:27:35;96678.56;;;15.08;83.46
32761;BME280;19126;47.472;7.850;2022-08-03T05:30:05;96674.72;;;15.11;81.63
32761;BME280;19126;47.472;7.850;2022-08-03T05:32:32;96681.03;;;15.17;83.63
32761;BME280;19126;47.472;7.850;2022-08-03T05:34:59;96678.19;;;15.25;81.15
32761;BME280;19126;47.472;7.850;2022-08-03T05:37:27;96673.31;;;15.42;80.09
32761;BME280;19126;47.472;7.850;2022-08-03T05:39:54;96682.66;;;15.72;79.24
32761;BME280;19126;47.472;7.850;2022-08-03T05:42:21;96683.84;;;16.16;83.10
32761;BME280;19126;47.472;7.850;2022-08-03T05:44:48;96678.16;;;16.65;92.52
32761;BME280;19126;47.472;7.850;2022-08-03T05:47:16;96671.97;;;17.17;100.00
32761;BME280;19126;47.472;7.850;2022-08-03T05:49:43;96675.06;;;17.64;100.00
32761;BME280;19126;47.472;7.850;2022-08-03T05:52:11;96675.84;;;18.15;100.00
32761;BME280;19126;47.472;7.850;2022-08-03T05:54:38;96677.66;;;18.52;100.00
32761;BME280;19126;47.472;7.850;2022-08-03T05:57:05;96677.06;;;18.99;100.00
32761;BME280;19126;47.472;7.850;2022-08-03T05:59:32;96678.47;;;19.44;100.00
32761;BME280;19126;47.472;7.850;2022-08-03T06:01:59;96672.56;;;19.66;96.95
32761;BME280;19126;47.472;7.850;2022-08-03T06:04:28;96669.81;;;20.09;98.28
32761;BME280;19126;47.472;7.850;2022-08-03T06:06:55;96673.34;;;20.38;93.43
32761;BME280;19126;47.472;7.850;2022-08-03T06:09:22;96673.50;;;20.60;91.88
32761;BME280;19126;47.472;7.850;2022-08-03T06:11:49;96665.66;;;21.12;91.51
32761;BME280;19126;47.472;7.850;2022-08-03T06:14:16;96673.88;;;21.39;86.99
32761;BME280;19126;47.472;7.850;2022-08-03T06:16:43;96672.22;;;21.67;86.44
32761;BME280;19126;47.472;7.850;2022-08-03T06:19:10;96665.91;;;21.95;83.74
32761;BME280;19126;47.472;7.850;2022-08-03T06:21:39;96673.94;;;21.95;83.89
32761;BME280;19126;47.472;7.850;2022-08-03T06:24:07;96672.13;;;22.40;84.70
32761;BME280;19126;47.472;7.850;2022-08-03T06:26:34;96669.78;;;22.66;80.74
32761;BME280;19126;47.472;7.850;2022-08-03T06:29:01;96669.88;;;22.77;80.33
32761;BME280;19126;47.472;7.850;2022-08-03T06:31:28;96668.41;;;22.91;79.28
32761;BME280;19126;47.472;7.850;2022-08-03T06:33:55;96664.91;;;23.18;76.97
32761;BME280;19126;47.472;7.850;2022-08-03T06:36:23;96658.75;;;23.45;78.89
32761;BME280;19126;47.472;7.850;2022-08-03T06:38:51;96664.00;;;23.67;79.13
32761;BME280;19126;47.472;7.850;2022-08-03T06:41:19;96665.97;;;24.25;76.96
32761;BME280;19126;47.472;7.850;2022-08-03T06:43:46;96671.06;;;24.17;75.50
32761;BME280;19126;47.472;7.850;2022-08-03T06:46:13;96660.66;;;24.36;73.47
32761;BME280;19126;47.472;7.850;2022-08-03T06:48:41;96666.31;;;24.39;72.91
32761;BME280;19126;47.472;7.850;2022-08-03T06:51:08;96659.47;;;24.75;72.63
32761;BME280;19126;47.472;7.850;2022-08-03T06:53:35;96660.09;;;25.28;75.01
32761;BME280;19126;47.472;7.850;2022-08-03T06:56:06;96664.41;;;25.71;70.11
32761;BME280;19126;47.472;7.850;2022-08-03T06:58:34;96662.50;;;25.92;69.34
32761;BME280;19126;47.472;7.850;2022-08-03T07:01:02;96660.34;;;25.94;67.03
32761;BME280;19126;47.472;7.850;2022-08-03T07:03:29;96657.78;;;26.39;67.26
32761;BME280;19126;47.472;7.850;2022-08-03T07:05:56;96658.84;;;26.48;65.53
32761;BME280;19126;47.472;7.850;2022-08-03T07:08:24;96668.44;;;26.70;64.64
32761;BME280;19126;47.472;7.850;2022-08-03T07:10:51;96669.16;;;26.91;65.19
32761;BME280;19126;47.472;7.850;2022-08-03T07:13:19;96669.56;;;27.14;68.41
32761;BME280;19126;47.472;7.850;2022-08-03T07:15:46;96658.66;;;27.30;64.05
32761;BME280;19126;47.472;7.850;2022-08-03T07:18:13;96667.75;;;27.74;65.13
32761;BME280;19126;47.472;7.850;2022-08-03T07:20:41;96663.91;;;28.10;60.69
32761;BME280;19126;47.472;7.850;2022-08-03T07:23:08;96661.59;;;27.98;58.97
32761;BME280;19126;47.472;7.850;2022-08-03T07:25:35;96652.78;;;28.60;60.11
32761;BME280;19126;47.472;7.850;2022-08-03T07:28:03;96664.59;;;29.07;60.45
32761;BME280;19126;47.472;7.850;2022-08-03T07:30:32;96661.38;;;29.24;55.93
32761;BME280;19126;47.472;7.850;2022-08-03T07:33:00;96661.44;;;29.72;57.34
32761;BME280;19126;47.472;7.850;2022-08-03T07:35:27;96663.78;;;29.92;53.51
32761;BME280;19126;47.472;7.850;2022-08-03T07:37:54;96655.41;;;30.08;55.79
32761;BME280;19126;47.472;7.850;2022-08-03T07:40:22;96662.06;;;29.82;51.17
32761;BME280;19126;47.472;7.850;2022-08-03T07:42:49;96653.38;;;30.14;53.07
32761;BME280;19126;47.472;7.850;2022-08-03T07:45:17;96656.69;;;30.10;54.88
32761;BME280;19126;47.472;7.850;2022-08-03T07:47:45;96664.41;;;30.45;52.40
32761;BME280;19126;47.472;7.850;2022-08-03T07:50:12;96657.50;;;30.67;49.87
32761;BME280;19126;47.472;7.850;2022-08-03T07:52:39;96666.09;;;30.83;50.55
32761;BME280;19126;47.472;7.850;2022-08-03T07:55:18;96657.38;;;30.02;51.79
32761;BME280;19126;47.472;7.850;2022-08-03T07:57:45;96661.03;;;30.25;49.32
32761;BME280;19126;47.472;7.850;2022-08-03T08:00:15;96669.63;;;30.41;51.16
32761;BME280;19126;47.472;7.850;2022-08-03T08:02:45;96665.72;;;30.20;50.91
32761;BME280;19126;47.472;7.850;2022-08-03T08:05:12;96659.72;;;30.09;49.24
32761;BME280;19126;47.472;7.850;2022-08-03T08:07:39;96663.13;;;30.29;49.70
32761;BME280;19126;47.472;7.850;2022-08-03T08:10:08;96663.31;;;30.18;49.71
32761;BME280;19126;47.472;7.850;2022-08-03T08:12:36;96655.97;;;30.47;48.66
32761;BME280;19126;47.472;7.850;2022-08-03T08:15:06;96652.44;;;31.11;49.21
32761;BME280;19126;47.472;7.850;2022-08-03T08:17:41;96657.22;;;31.51;47.81
32761;BME280;19126;47.472;7.850;2022-08-03T08:20:14;96656.69;;;31.71;48.47
32761;BME280;19126;47.472;7.850;2022-08-03T08:22:41;96660.66;;;31.42;46.52
32761;BME280;19126;47.472;7.850;2022-08-03T08:25:08;96659.31;;;31.77;46.15
32761;BME280;19126;47.472;7.850;2022-08-03T08:27:41;96652.81;;;31.86;48.46
32761;BME280;19126;47.472;7.850;2022-08-03T08:30:11;96654.97;;;32.07;46.17
32761;BME280;19126;47.472;7.850;2022-08-03T08:32:39;96659.50;;;32.21;45.12
32761;BME280;19126;47.472;7.850;2022-08-03T08:35:07;96653.38;;;32.47;45.50
32761;BME280;19126;47.472;7.850;2022-08-03T08:37:36;96654.47;;;32.45;43.77
32761;BME280;19126;47.472;7.850;2022-08-03T08:40:05;96644.13;;;32.56;43.53
32761;BME280;19126;47.472;7.850;2022-08-03T08:42:35;96651.00;;;32.13;44.50
32761;BME280;19126;47.472;7.850;2022-08-03T08:45:04;96643.47;;;32.59;46.09
32761;BME280;19126;47.472;7.850;2022-08-03T08:47:36;96644.94;;;32.83;43.65
32761;BME280;19126;47.472;7.850;2022-08-03T08:50:04;96637.28;;;32.94;43.64
32761;BME280;19126;47.472;7.850;2022-08-03T08:52:33;96641.44;;;33.09;43.18
32761;BME280;19126;47.472;7.850;2022-08-03T08:55:05;96646.91;;;32.92;42.97
32761;BME280;19126;47.472;7.850;2022-08-03T08:57:36;96648.66;;;33.40;44.93
32761;BME280;19126;47.472;7.850;2022-08-03T09:00:06;96646.09;;;33.44;42.90
32761;BME280;19126;47.472;7.850;2022-08-03T09:02:35;96648.19;;;33.47;41.25
32761;BME280;19126;47.472;7.850;2022-08-03T09:05:03;96649.06;;;32.63;40.00
32761;BME280;19126;47.472;7.850;2022-08-03T09:07:31;96641.28;;;33.32;40.73
32761;BME280;19126;47.472;7.850;2022-08-03T09:09:58;96646.09;;;33.17;41.10
32761;BME280;19126;47.472;7.850;2022-08-03T09:12:27;96648.66;;;33.49;41.38
32761;BME280;19126;47.472;7.850;2022-08-03T09:14:54;96642.41;;;34.05;41.35
32761;BME280;19126;47.472;7.850;2022-08-03T09:17:22;96641.59;;;33.30;39.58
32761;BME280;19126;47.472;7.850;2022-08-03T09:20:05;96649.13;;;34.08;40.22
32761;BME280;19126;47.472;7.850;2022-08-03T09:22:34;96645.03;;;34.61;38.48
32761;BME280;19126;47.472;7.850;2022-08-03T09:25:04;96645.53;;;33.68;38.27
32761;BME280;19126;47.472;7.850;2022-08-03T09:27:43;96640.84;;;33.95;38.80
32761;BME280;19126;47.472;7.850;2022-08-03T09:30:13;96639.72;;;33.96;38.00
32761;BME280;19126;47.472;7.850;2022-08-03T09:32:41;96638.50;;;34.15;39.30
32761;BME280;19126;47.472;7.850;2022-08-03T09:35:10;96644.94;;;34.10;38.82
32761;BME280;19126;47.472;7.850;2022-08-03T09:37:38;96639.03;;;34.47;37.88
32761;BME280;19126;47.472;7.850;2022-08-03T09:40:06;96636.63;;;34.88;37.69
32761;BME280;19126;47.472;7.850;2022-08-03T09:42:34;96639.44;;;33.71;36.75
32761;BME280;19126;47.472;7.850;2022-08-03T09:45:05;96636.31;;;34.38;37.65
32761;BME280;19126;47.472;7.850;2022-08-03T09:47:34;96626.94;;;34.78;39.04
32761;BME280;19126;47.472;7.850;2022-08-03T09:50:04;96630.44;;;35.21;38.87
32761;BME280;19126;47.472;7.850;2022-08-03T09:52:34;96627.09;;;35.70;35.49
32761;BME280;19126;47.472;7.850;2022-08-03T09:55:07;96633.56;;;35.65;37.68
32761;BME280;19126;47.472;7.850;2022-08-03T09:57:35;96630.94;;;35.69;36.12
32761;BME280;19126;47.472;7.850;2022-08-03T10:00:10;96632.63;;;35.61;36.49
32761;BME280;19126;47.472;7.850;2022-08-03T10:02:38;96631.25;;;36.26;36.92
32761;BME280;19126;47.472;7.850;2022-08-03T10:05:08;96617.69;;;36.05;35.51
32761;BME280;19126;47.472;7.850;2022-08-03T10:07:43;96621.44;;;36.25;35.86
32761;BME280;19126;47.472;7.850;2022-08-03T10:10:12;96623.38;;;36.49;34.86
32761;BME280;19126;47.472;7.850;2022-08-03T10:12:41;96612.59;;;36.81;36.58
32761;BME280;19126;47.472;7.850;2022-08-03T10:15:10;96613.53;;;37.14;35.81
32761;BME280;19126;47.472;7.850;2022-08-03T10:17:38;96612.47;;;37.47;33.63
32761;BME280;19126;47.472;7.850;2022-08-03T10:20:09;96615.03;;;36.46;33.56
32761;BME280;19126;47.472;7.850;2022-08-03T10:22:38;96618.59;;;36.21;34.85
32761;BME280;19126;47.472;7.850;2022-08-03T10:25:08;96611.84;;;36.44;35.14
32761;BME280;19126;47.472;7.850;2022-08-03T10:27:38;96603.84;;;36.63;34.03
32761;BME280;19126;47.472;7.850;2022-08-03T10:30:08;96612.16;;;35.68;33.13
32761;BME280;19126;47.472;7.850;2022-08-03T10:32:40;96604.34;;;36.16;34.56
32761;BME280;19126;47.472;7.850;2022-08-03T10:35:12;96599.53;;;35.88;33.05
32761;BME280;19126;47.472;7.850;2022-08-03T10:37:42;96599.34;;;36.18;35.60
32761;BME280;19126;47.472;7.850;2022-08-03T10:40:13;96594.97;;;36.54;34.12
32761;BME280;19126;47.472;7.850;2022-08-03T10:42:42;96588.25;;;36.92;33.63
32761;BME280;19126;47.472;7.850;2022-08-03T10:45:17;96594.72;;;36.72;33.49
32761;BME280;19126;47.472;7.850;2022-08-03T10:47:46;96599.28;;;36.67;32.56
32761;BME280;19126;47.472;7.850;2022-08-03T10:50:15;96591.09;;;36.43;32.00
32761;BME280;19126;47.472;7.850;2022-08-03T10:52:55;96595.91;;;35.84;33.30
32761;BME280;19126;47.472;7.850;2022-08-03T10:55:30;96591.50;;;36.16;33.53
32761;BME280;19126;47.472;7.850;2022-08-03T10:58:16;96592.03;;;35.39;34.30
32761;BME280;19126;47.472;7.850;2022-08-03T11:01:04;96593.97;;;36.34;33.84
32761;BME280;19126;47.472;7.850;2022-08-03T11:03:34;96583.78;;;36.59;32.01
32761;BME280;19126;47.472;7.850;2022-08-03T11:06:22;96570.34;;;36.42;32.22
32761;BME280;19126;47.472;7.850;2022-08-03T11:09:15;96576.50;;;36.63;33.13
32761;BME280;19126;47.472;7.850;2022-08-03T11:11:43;96573.00;;;37.20;32.38
32761;BME280;19126;47.472;7.850;2022-08-03T11:14:14;96571.16;;;36.55;31.25
32761;BME280;19126;47.472;7.850;2022-08-03T11:16:44;96567.16;;;36.93;31.35
32761;BME280;19126;47.472;7.850;2022-08-03T11:19:15;96564.88;;;37.23;31.61
32761;BME280;19126;47.472;7.850;2022-08-03T11:21:57;96562.81;;;37.04;31.17
32761;BME280;19126;47.472;7.850;2022-08-03T11:24:57;96564.09;;;36.82;31.04
32761;BME280;19126;47.472;7.850;2022-08-03T11:27:27;96560.47;;;36.37;31.81
32761;BME280;19126;47.472;7.850;2022-08-03T11:29:58;96565.63;;;36.14;29.68
32761;BME280;19126;47.472;7.850;2022-08-03T11:32:53;96562.19;;;36.17;31.88
32761;BME280;19126;47.472;7.850;2022-08-03T11:35:24;96556.19;;;36.64;32.26
32761;BME280;19126;47.472;7.850;2022-08-03T11:38:05;96560.59;;;36.28;30.78
32761;BME280;19126;47.472;7.850;2022-08-03T11:40:35;96566.75;;;36.13;31.12
32761;BME280;19126;47.472;7.850;2022-08-03T11:43:05;96553.59;;;36.56;33.28
32761;BME280;19126;47.472;7.850;2022-08-03T11:45:34;96557.31;;;37.04;31.90
32761;BME280;19126;47.472;7.850;2022-08-03T11:48:14;96555.28;;;37.01;31.41
32761;BME280;19126;47.472;7.850;2022-08-03T11:50:43;96557.09;;;36.69;30.41
32761;BME280;19126;47.472;7.850;2022-08-03T11:53:16;96551.19;;;36.54;31.62
32761;BME280;19126;47.472;7.850;2022-08-03T11:55:45;96554.19;;;36.49;30.74
32761;BME280;19126;47.472;7.850;2022-08-03T11:58:22;96549.53;;;36.37;31.74
32761;BME280;19126;47.472;7.850;2022-08-03T12:00:50;96550.69;;;35.99;31.29
32761;BME280;19126;47.472;7.850;2022-08-03T12:03:19;96548.09;;;36.02;32.51
32761;BME280;19126;47.472;7.850;2022-08-03T12:05:51;96539.72;;;36.36;31.74
32761;BME280;19126;47.472;7.850;2022-08-03T12:08:30;96548.19;;;35.93;31.89
32761;BME280;19126;47.472;7.850;2022-08-03T12:10:59;96539.63;;;35.70;31.38
32761;BME280;19126;47.472;7.850;2022-08-03T12:13:37;96538.22;;;35.39;31.46
32761;BME280;19126;47.472;7.850;2022-08-03T12:16:04;96542.03;;;35.72;32.01
32761;BME280;19126;47.472;7.850;2022-08-03T12:18:32;96539.06;;;35.52;31.18
32761;BME280;19126;47.472;7.850;2022-08-03T12:21:07;96539.63;;;35.70;31.24
32761;BME280;19126;47.472;7.850;2022-08-03T12:23:34;96529.63;;;36.12;32.61
32761;BME280;19126;47.472;7.850;2022-08-03T12:26:03;96529.53;;;36.61;32.11
32761;BME280;19126;47.472;7.850;2022-08-03T12:28:31;96528.78;;;36.36;29.61
32761;BME280;19126;47.472;7.850;2022-08-03T12:31:03;96524.13;;;36.93;30.53
32761;BME280;19126;47.472;7.850;2022-08-03T12:33:32;96525.06;;;36.69;30.04
32761;BME280;19126;47.472;7.850;2022-08-03T12:36:20;96519.72;;;36.48;30.31
32761;BME280;19126;47.472;7.850;2022-08-03T12:38:55;96510.34;;;36.33;30.03
32761;BME280;19126;47.472;7.850;2022-08-03T12:41:28;96511.19;;;36.62;30.62
32761;BME280;19126;47.472;7.850;2022-08-03T12:43:56;96508.66;;;36.85;31.90
32761;BME280;19126;47.472;7.850;2022-08-03T12:46:30;96514.94;;;36.86;30.50
32761;BME280;19126;47.472;7.850;2022-08-03T12:49:06;96508.25;;;36.55;29.55
32761;BME280;19126;47.472;7.850;2022-08-03T12:51:54;96515.47;;;36.22;29.59
32761;BME280;19126;47.472;7.850;2022-08-03T12:54:23;96508.78;;;36.19;30.96
32761;BME280;19126;47.472;7.850;2022-08-03T12:56:57;96508.53;;;35.75;31.06
32761;BME280;19126;47.472;7.850;2022-08-03T12:59:26;96507.41;;;36.13;30.34
32761;BME280;19126;47.472;7.850;2022-08-03T13:01:53;96502.41;;;36.44;30.07
32761;BME280;19126;47.472;7.850;2022-08-03T13:04:28;96507.06;;;36.15;29.87
32761;BME280;19126;47.472;7.850;2022-08-03T13:07:01;96508.56;;;35.87;30.74
32761;BME280;19126;47.472;7.850;2022-08-03T13:09:39;96503.28;;;35.45;31.26
32761;BME280;19126;47.472;7.850;2022-08-03T13:12:09;96508.78;;;35.70;31.19
32761;BME280;19126;47.472;7.850;2022-08-03T13:14:36;96508.56;;;35.87;30.58
32761;BME280;19126;47.472;7.850;2022-08-03T13:17:05;96498.13;;;36.30;31.10